sensor_id;sensor_type;location;lat;lon;timestamp;temperature;humidity
3055;DHT22;1537;52.018;8.542;2023-02-20T00:03:15;6.50;98.30
3055;DHT22;1537;52.018;8.542;2023-02-20T00:06:43;6.50;98.10
3055;DHT22;1537;52.018;8.542;2023-02-20T00:10:07;6.50;97.90
3055;DHT22;1537;52.018;8.542;2023-02-20T00:13:33;6.50;97.60
3055;DHT22;1537;52.018;8.542;2023-02-20T00:16:57;6.60;97.70
3055;DHT22;1537;52.018;8.542;2023-02-20T00:20:24;6.50;97.40
3055;DHT22;1537;52.018;8.542;2023-02-20T00:23:50;6.50;97.50
3055;DHT22;1537;52.018;8.542;2023-02-20T00:27:16;6.50;97.40
3055;DHT22;1537;52.018;8.542;2023-02-20T00:30:41;6.50;97.50
3055;DHT22;1537;52.018;8.542;2023-02-20T00:34:09;6.50;97.50
3055;DHT22;1537;52.018;8.542;2023-02-20T00:37:33;6.50;97.40
3055;DHT22;1537;52.018;8.542;2023-02-20T00:40:58;6.50;97.60
3055;DHT22;1537;52.018;8.542;2023-02-20T00:44:23;6.50;97.70
3055;DHT22;1537;52.018;8.542;2023-02-20T00:47:48;6.60;97.60
3055;DHT22;1537;52.018;8.542;2023-02-20T00:51:12;6.60;97.60
3055;DHT22;1537;52.018;8.542;2023-02-20T00:54:36;6.60;97.50
3055;DHT22;1537;52.018;8.542;2023-02-20T00:58:11;6.50;97.60
3055;DHT22;1537;52.018;8.542;2023-02-20T01:01:38;6.60;97.60
3055;DHT22;1537;52.018;8.542;2023-02-20T01:05:02;6.60;97.60
3055;DHT22;1537;52.018;8.542;2023-02-20T01:08:26;6.50;97.70
3055;DHT22;1537;52.018;8.542;2023-02-20T01:11:51;6.40;97.90
3055;DHT22;1537;52.018;8.542;2023-02-20T01:15:16;6.40;98.10
3055;DHT22;1537;52.018;8.542;2023-02-20T01:18:40;6.30;98.20
3055;DHT22;1537;52.018;8.542;2023-02-20T01:22:06;6.30;98.30
3055;DHT22;1537;52.018;8.542;2023-02-20T01:25:32;6.30;98.30
3055;DHT22;1537;52.018;8.542;2023-02-20T01:28:56;6.30;98.40
3055;DHT22;1537;52.018;8.542;2023-02-20T01:32:29;6.30;98.30
3055;DHT22;1537;52.018;8.542;2023-02-20T01:35:54;6.30;98.20
3055;DHT22;1537;52.018;8.542;2023-02-20T01:39:19;6.30;98.10
3055;DHT22;1537;52.018;8.542;2023-02-20T01:42:44;6.30;98.20
3055;DHT22;1537;52.018;8.542;2023-02-20T01:50:18;6.30;98.00
3055;DHT22;1537;52.018;8.542;2023-02-20T01:53:42;6.30;97.90
3055;DHT22;1537;52.018;8.542;2023-02-20T01:57:11;6.30;97.90
3055;DHT22;1537;52.018;8.542;2023-02-20T02:00:37;6.30;97.80
3055;DHT22;1537;52.018;8.542;2023-02-20T02:04:06;6.30;97.90
3055;DHT22;1537;52.018;8.542;2023-02-20T02:07:32;6.30;97.90
3055;DHT22;1537;52.018;8.542;2023-02-20T02:11:00;6.20;98.00
3055;DHT22;1537;52.018;8.542;2023-02-20T02:14:25;6.30;98.00
3055;DHT22;1537;52.018;8.542;2023-02-20T02:18:17;6.30;98.00
3055;DHT22;1537;52.018;8.542;2023-02-20T02:22:12;6.30;98.00
3055;DHT22;1537;52.018;8.542;2023-02-20T02:25:46;6.30;97.90
3055;DHT22;1537;52.018;8.542;2023-02-20T02:29:45;6.30;97.90
3055;DHT22;1537;52.018;8.542;2023-02-20T02:33:38;6.30;97.90
3055;DHT22;1537;52.018;8.542;2023-02-20T02:37:14;6.30;97.90
3055;DHT22;1537;52.018;8.542;2023-02-20T02:40:53;6.30;98.00
3055;DHT22;1537;52.018;8.542;2023-02-20T02:44:27;6.30;98.00
3055;DHT22;1537;52.018;8.542;2023-02-20T02:47:58;6.30;98.00
3055;DHT22;1537;52.018;8.542;2023-02-20T02:51:25;6.30;98.10
3055;DHT22;1537;52.018;8.542;2023-02-20T02:54:51;6.30;98.00
3055;DHT22;1537;52.018;8.542;2023-02-20T02:58:17;6.30;98.10
3055;DHT22;1537;52.018;8.542;2023-02-20T03:01:48;6.30;98.10
3055;DHT22;1537;52.018;8.542;2023-02-20T03:05:18;6.30;98.00
3055;DHT22;1537;52.018;8.542;2023-02-20T03:08:48;6.40;98.30
3055;DHT22;1537;52.018;8.542;2023-02-20T03:12:21;6.40;97.90
3055;DHT22;1537;52.018;8.542;2023-02-20T03:15:52;6.40;97.70
3055;DHT22;1537;52.018;8.542;2023-02-20T03:19:20;6.40;97.80
3055;DHT22;1537;52.018;8.542;2023-02-20T03:22:48;6.40;97.90
3055;DHT22;1537;52.018;8.542;2023-02-20T03:26:16;6.40;97.90
3055;DHT22;1537;52.018;8.542;2023-02-20T03:29:47;6.40;97.90
3055;DHT22;1537;52.018;8.542;2023-02-20T03:33:18;6.40;98.00
3055;DHT22;1537;52.018;8.542;2023-02-20T03:37:05;6.40;98.00
3055;DHT22;1537;52.018;8.542;2023-02-20T03:40:49;6.40;98.10
3055;DHT22;1537;52.018;8.542;2023-02-20T03:44:35;6.50;98.20
3055;DHT22;1537;52.018;8.542;2023-02-20T03:48:06;6.50;98.20
3055;DHT22;1537;52.018;8.542;2023-02-20T03:51:35;6.60;98.20
3055;DHT22;1537;52.018;8.542;2023-02-20T03:55:28;6.60;98.00
3055;DHT22;1537;52.018;8.542;2023-02-20T03:58:59;6.50;98.00
3055;DHT22;1537;52.018;8.542;2023-02-20T04:02:26;6.50;98.20
3055;DHT22;1537;52.018;8.542;2023-02-20T04:05:56;6.50;98.10
3055;DHT22;1537;52.018;8.542;2023-02-20T04:09:30;6.50;98.10
3055;DHT22;1537;52.018;8.542;2023-02-20T04:12:57;6.50;98.10
3055;DHT22;1537;52.018;8.542;2023-02-20T04:16:23;6.50;98.10
3055;DHT22;1537;52.018;8.542;2023-02-20T04:19:47;6.50;98.10
3055;DHT22;1537;52.018;8.542;2023-02-20T04:23:16;6.40;98.10
3055;DHT22;1537;52.018;8.542;2023-02-20T04:26:41;6.40;98.20
3055;DHT22;1537;52.018;8.542;2023-02-20T04:30:07;6.40;98.10
3055;DHT22;1537;52.018;8.542;2023-02-20T04:33:32;6.40;98.10
3055;DHT22;1537;52.018;8.542;2023-02-20T04:37:07;6.40;98.10
3055;DHT22;1537;52.018;8.542;2023-02-20T04:40:34;6.40;98.00
3055;DHT22;1537;52.018;8.542;2023-02-20T04:43:58;6.40;98.00
3055;DHT22;1537;52.018;8.542;2023-02-20T04:47:36;6.40;98.00
3055;DHT22;1537;52.018;8.542;2023-02-20T04:51:01;6.40;97.90
3055;DHT22;1537;52.018;8.542;2023-02-20T04:54:27;6.50;98.10
3055;DHT22;1537;52.018;8.542;2023-02-20T04:57:54;6.50;97.60
3055;DHT22;1537;52.018;8.542;2023-02-20T05:01:40;6.50;97.60
3055;DHT22;1537;52.018;8.542;2023-02-20T05:05:15;6.50;97.50
3055;DHT22;1537;52.018;8.542;2023-02-20T05:08:43;6.60;97.50
3055;DHT22;1537;52.018;8.542;2023-02-20T05:12:12;6.60;97.40
3055;DHT22;1537;52.018;8.542;2023-02-20T05:15:38;6.60;97.40
3055;DHT22;1537;52.018;8.542;2023-02-20T05:19:01;6.60;97.30
3055;DHT22;1537;52.018;8.542;2023-02-20T05:22:25;6.60;97.70
3055;DHT22;1537;52.018;8.542;2023-02-20T05:25:50;6.60;97.30
3055;DHT22;1537;52.018;8.542;2023-02-20T05:29:18;6.60;97.40
3055;DHT22;1537;52.018;8.542;2023-02-20T05:32:44;6.60;97.40
3055;DHT22;1537;52.018;8.542;2023-02-20T05:36:08;6.60;97.40
3055;DHT22;1537;52.018;8.542;2023-02-20T05:39:32;6.60;97.50
3055;DHT22;1537;52.018;8.542;2023-02-20T05:42:56;6.60;97.50
3055;DHT22;1537;52.018;8.542;2023-02-20T05:46:20;6.50;97.60
3055;DHT22;1537;52.018;8.542;2023-02-20T05:49:46;6.50;97.60
3055;DHT22;1537;52.018;8.542;2023-02-20T05:53:10;6.50;97.70
3055;DHT22;1537;52.018;8.542;2023-02-20T05:56:34;6.50;97.70
3055;DHT22;1537;52.018;8.542;2023-02-20T05:59:58;6.50;97.80
3055;DHT22;1537;52.018;8.542;2023-02-20T06:03:22;6.50;97.90
3055;DHT22;1537;52.018;8.542;2023-02-20T06:06:48;6.50;97.90
3055;DHT22;1537;52.018;8.542;2023-02-20T06:10:13;6.50;98.00
3055;DHT22;1537;52.018;8.542;2023-02-20T06:13:39;6.50;98.00
3055;DHT22;1537;52.018;8.542;2023-02-20T06:17:03;6.50;98.10
3055;DHT22;1537;52.018;8.542;2023-02-20T06:20:27;6.50;98.10
3055;DHT22;1537;52.018;8.542;2023-02-20T06:23:53;6.50;98.10
3055;DHT22;1537;52.018;8.542;2023-02-20T06:27:17;6.50;98.10
3055;DHT22;1537;52.018;8.542;2023-02-20T06:30:41;6.50;98.10
3055;DHT22;1537;52.018;8.542;2023-02-20T06:34:06;6.50;98.20
3055;DHT22;1537;52.018;8.542;2023-02-20T06:37:30;6.50;98.20
3055;DHT22;1537;52.018;8.542;2023-02-20T06:40:58;6.60;98.10
3055;DHT22;1537;52.018;8.542;2023-02-20T06:44:24;6.60;98.10
3055;DHT22;1537;52.018;8.542;2023-02-20T06:47:48;6.60;98.10
3055;DHT22;1537;52.018;8.542;2023-02-20T06:51:15;6.60;98.10
3055;DHT22;1537;52.018;8.542;2023-02-20T06:54:39;6.60;98.00
3055;DHT22;1537;52.018;8.542;2023-02-20T06:58:11;6.60;98.00
3055;DHT22;1537;52.018;8.542;2023-02-20T07:01:40;6.60;97.90
3055;DHT22;1537;52.018;8.542;2023-02-20T07:05:06;6.60;97.90
3055;DHT22;1537;52.018;8.542;2023-02-20T07:08:30;6.60;97.90
3055;DHT22;1537;52.018;8.542;2023-02-20T07:11:54;6.60;97.90
3055;DHT22;1537;52.018;8.542;2023-02-20T07:15:20;6.50;98.00
3055;DHT22;1537;52.018;8.542;2023-02-20T07:18:43;6.50;97.90
3055;DHT22;1537;52.018;8.542;2023-02-20T07:22:07;6.60;97.90
3055;DHT22;1537;52.018;8.542;2023-02-20T07:25:31;6.50;98.00
3055;DHT22;1537;52.018;8.542;2023-02-20T07:28:57;6.50;98.10
3055;DHT22;1537;52.018;8.542;2023-02-20T07:32:24;6.50;98.00
3055;DHT22;1537;52.018;8.542;2023-02-20T07:35:48;6.50;98.00
3055;DHT22;1537;52.018;8.542;2023-02-20T07:39:15;6.50;98.10
3055;DHT22;1537;52.018;8.542;2023-02-20T07:42:41;6.50;98.10
3055;DHT22;1537;52.018;8.542;2023-02-20T07:46:15;6.50;98.10
3055;DHT22;1537;52.018;8.542;2023-02-20T07:49:44;6.50;98.10
3055;DHT22;1537;52.018;8.542;2023-02-20T07:53:09;6.50;98.00
3055;DHT22;1537;52.018;8.542;2023-02-20T07:56:33;6.60;98.00
3055;DHT22;1537;52.018;8.542;2023-02-20T07:59:57;6.50;98.00
3055;DHT22;1537;52.018;8.542;2023-02-20T08:03:21;6.50;98.10
3055;DHT22;1537;52.018;8.542;2023-02-20T08:06:47;6.50;98.10
3055;DHT22;1537;52.018;8.542;2023-02-20T08:10:11;6.50;98.10
3055;DHT22;1537;52.018;8.542;2023-02-20T08:13:39;6.60;98.00
3055;DHT22;1537;52.018;8.542;2023-02-20T08:17:05;6.50;97.90
3055;DHT22;1537;52.018;8.542;2023-02-20T08:20:34;6.60;97.80
3055;DHT22;1537;52.018;8.542;2023-02-20T08:24:00;6.60;97.70
3055;DHT22;1537;52.018;8.542;2023-02-20T08:27:26;6.60;97.50
3055;DHT22;1537;52.018;8.542;2023-02-20T08:30:56;6.60;97.40
3055;DHT22;1537;52.018;8.542;2023-02-20T08:34:20;6.60;97.50
3055;DHT22;1537;52.018;8.542;2023-02-20T08:37:44;6.60;97.30
3055;DHT22;1537;52.018;8.542;2023-02-20T08:41:11;6.60;97.30
3055;DHT22;1537;52.018;8.542;2023-02-20T08:44:35;6.70;97.40
3055;DHT22;1537;52.018;8.542;2023-02-20T08:47:59;6.70;97.30
3055;DHT22;1537;52.018;8.542;2023-02-20T08:51:23;6.70;97.20
3055;DHT22;1537;52.018;8.542;2023-02-20T08:54:48;6.80;97.20
3055;DHT22;1537;52.018;8.542;2023-02-20T08:58:18;6.80;97.30
3055;DHT22;1537;52.018;8.542;2023-02-20T09:01:41;6.80;97.30
3055;DHT22;1537;52.018;8.542;2023-02-20T09:05:07;6.80;97.30
3055;DHT22;1537;52.018;8.542;2023-02-20T09:08:31;6.70;97.40
3055;DHT22;1537;52.018;8.542;2023-02-20T09:11:54;6.70;97.50
3055;DHT22;1537;52.018;8.542;2023-02-20T09:15:19;6.80;97.50
3055;DHT22;1537;52.018;8.542;2023-02-20T09:18:44;6.80;97.50
3055;DHT22;1537;52.018;8.542;2023-02-20T09:22:08;6.70;97.50
3055;DHT22;1537;52.018;8.542;2023-02-20T09:25:32;6.70;97.70
3055;DHT22;1537;52.018;8.542;2023-02-20T09:28:57;6.70;97.70
3055;DHT22;1537;52.018;8.542;2023-02-20T09:32:22;6.80;97.80
3055;DHT22;1537;52.018;8.542;2023-02-20T09:35:46;6.80;97.80
3055;DHT22;1537;52.018;8.542;2023-02-20T09:39:10;6.90;97.70
3055;DHT22;1537;52.018;8.542;2023-02-20T09:42:41;6.90;97.80
3055;DHT22;1537;52.018;8.542;2023-02-20T09:46:10;7.10;97.70
3055;DHT22;1537;52.018;8.542;2023-02-20T09:49:38;7.00;97.60
3055;DHT22;1537;52.018;8.542;2023-02-20T09:53:05;7.00;97.70
3055;DHT22;1537;52.018;8.542;2023-02-20T09:56:37;7.10;97.60
3055;DHT22;1537;52.018;8.542;2023-02-20T10:00:05;7.10;97.60
3055;DHT22;1537;52.018;8.542;2023-02-20T10:03:34;7.10;97.80
3055;DHT22;1537;52.018;8.542;2023-02-20T10:07:11;7.10;97.80
3055;DHT22;1537;52.018;8.542;2023-02-20T10:10:36;7.10;97.70
3055;DHT22;1537;52.018;8.542;2023-02-20T10:14:16;7.20;97.70
3055;DHT22;1537;52.018;8.542;2023-02-20T10:17:49;7.10;97.90
3055;DHT22;1537;52.018;8.542;2023-02-20T10:21:31;7.20;97.80
3055;DHT22;1537;52.018;8.542;2023-02-20T10:25:10;7.20;97.90
3055;DHT22;1537;52.018;8.542;2023-02-20T10:28:35;7.30;97.90
3055;DHT22;1537;52.018;8.542;2023-02-20T10:32:02;7.30;97.80
3055;DHT22;1537;52.018;8.542;2023-02-20T10:35:35;7.40;97.80
3055;DHT22;1537;52.018;8.542;2023-02-20T10:39:05;7.30;97.90
3055;DHT22;1537;52.018;8.542;2023-02-20T10:42:35;7.40;98.00
3055;DHT22;1537;52.018;8.542;2023-02-20T10:46:04;7.40;97.90
3055;DHT22;1537;52.018;8.542;2023-02-20T10:49:36;7.30;98.10
3055;DHT22;1537;52.018;8.542;2023-02-20T10:53:06;7.30;98.20
3055;DHT22;1537;52.018;8.542;2023-02-20T10:56:34;7.30;98.20
3055;DHT22;1537;52.018;8.542;2023-02-20T11:00:05;7.30;98.40
3055;DHT22;1537;52.018;8.542;2023-02-20T11:03:36;7.30;98.50
3055;DHT22;1537;52.018;8.542;2023-02-20T11:07:06;7.40;98.30
3055;DHT22;1537;52.018;8.542;2023-02-20T11:10:30;7.50;98.20
3055;DHT22;1537;52.018;8.542;2023-02-20T11:13:53;7.50;98.30
3055;DHT22;1537;52.018;8.542;2023-02-20T11:17:20;7.50;98.30
3055;DHT22;1537;52.018;8.542;2023-02-20T11:20:47;7.50;98.20
3055;DHT22;1537;52.018;8.542;2023-02-20T11:24:25;7.40;98.30
3055;DHT22;1537;52.018;8.542;2023-02-20T11:27:53;7.50;98.40
3055;DHT22;1537;52.018;8.542;2023-02-20T11:31:21;7.50;98.40
3055;DHT22;1537;52.018;8.542;2023-02-20T11:34:46;7.50;98.50
3055;DHT22;1537;52.018;8.542;2023-02-20T11:38:30;7.60;98.50
3055;DHT22;1537;52.018;8.542;2023-02-20T11:42:14;7.60;98.50
3055;DHT22;1537;52.018;8.542;2023-02-20T11:45:38;7.50;98.50
3055;DHT22;1537;52.018;8.542;2023-02-20T11:49:04;7.50;98.60
3055;DHT22;1537;52.018;8.542;2023-02-20T11:52:29;7.60;98.70
3055;DHT22;1537;52.018;8.542;2023-02-20T11:56:08;7.70;98.60
3055;DHT22;1537;52.018;8.542;2023-02-20T11:59:35;7.70;98.50
3055;DHT22;1537;52.018;8.542;2023-02-20T12:03:11;7.80;98.50
3055;DHT22;1537;52.018;8.542;2023-02-20T12:06:41;7.80;98.50
3055;DHT22;1537;52.018;8.542;2023-02-20T12:10:23;7.80;98.60
3055;DHT22;1537;52.018;8.542;2023-02-20T12:13:50;7.80;98.70
3055;DHT22;1537;52.018;8.542;2023-02-20T12:17:20;7.80;98.70
3055;DHT22;1537;52.018;8.542;2023-02-20T12:20:52;7.80;98.80
3055;DHT22;1537;52.018;8.542;2023-02-20T12:24:29;7.90;98.80
3055;DHT22;1537;52.018;8.542;2023-02-20T12:28:08;7.90;98.90
3055;DHT22;1537;52.018;8.542;2023-02-20T12:31:41;7.90;98.80
3055;DHT22;1537;52.018;8.542;2023-02-20T12:35:28;7.90;98.80
3055;DHT22;1537;52.018;8.542;2023-02-20T12:38:56;7.90;98.90
3055;DHT22;1537;52.018;8.542;2023-02-20T12:42:31;7.90;98.90
3055;DHT22;1537;52.018;8.542;2023-02-20T12:46:05;8.00;99.00
3055;DHT22;1537;52.018;8.542;2023-02-20T12:49:53;8.00;98.90
3055;DHT22;1537;52.018;8.542;2023-02-20T12:53:39;8.00;99.10
3055;DHT22;1537;52.018;8.542;2023-02-20T12:57:12;8.00;99.10
3055;DHT22;1537;52.018;8.542;2023-02-20T13:00:39;8.10;99.00
3055;DHT22;1537;52.018;8.542;2023-02-20T13:04:18;8.00;99.10
3055;DHT22;1537;52.018;8.542;2023-02-20T13:07:46;8.10;99.00
3055;DHT22;1537;52.018;8.542;2023-02-20T13:11:15;8.00;99.40
3055;DHT22;1537;52.018;8.542;2023-02-20T13:14:52;8.10;99.20
3055;DHT22;1537;52.018;8.542;2023-02-20T13:18:22;8.10;99.30
3055;DHT22;1537;52.018;8.542;2023-02-20T13:21:49;8.10;99.70
3055;DHT22;1537;52.018;8.542;2023-02-20T13:25:39;8.10;99.70
3055;DHT22;1537;52.018;8.542;2023-02-20T13:29:11;8.10;99.80
3055;DHT22;1537;52.018;8.542;2023-02-20T13:32:35;8.10;99.80
3055;DHT22;1537;52.018;8.542;2023-02-20T13:35:59;8.10;99.90
3055;DHT22;1537;52.018;8.542;2023-02-20T13:39:45;8.10;99.90
3055;DHT22;1537;52.018;8.542;2023-02-20T13:43:29;8.10;99.90
3055;DHT22;1537;52.018;8.542;2023-02-20T13:46:56;8.10;99.90
3055;DHT22;1537;52.018;8.542;2023-02-20T13:50:30;8.10;99.90
3055;DHT22;1537;52.018;8.542;2023-02-20T13:53:58;8.10;99.90
3055;DHT22;1537;52.018;8.542;2023-02-20T13:57:28;8.10;99.90
3055;DHT22;1537;52.018;8.542;2023-02-20T14:00:54;8.00;99.90
3055;DHT22;1537;52.018;8.542;2023-02-20T14:04:19;8.00;99.90
3055;DHT22;1537;52.018;8.542;2023-02-20T14:07:45;8.10;99.90
3055;DHT22;1537;52.018;8.542;2023-02-20T14:11:11;8.10;99.90
3055;DHT22;1537;52.018;8.542;2023-02-20T14:14:39;8.10;99.90
3055;DHT22;1537;52.018;8.542;2023-02-20T14:18:03;8.10;99.90
3055;DHT22;1537;52.018;8.542;2023-02-20T14:21:37;8.10;99.90
3055;DHT22;1537;52.018;8.542;2023-02-20T14:25:28;8.10;99.90
3055;DHT22;1537;52.018;8.542;2023-02-20T14:28:55;8.10;99.90
3055;DHT22;1537;52.018;8.542;2023-02-20T14:32:20;8.00;99.90
3055;DHT22;1537;52.018;8.542;2023-02-20T14:36:06;8.00;99.90
3055;DHT22;1537;52.018;8.542;2023-02-20T14:39:41;8.00;99.90
3055;DHT22;1537;52.018;8.542;2023-02-20T14:43:11;8.10;99.90
3055;DHT22;1537;52.018;8.542;2023-02-20T14:46:36;8.00;99.90
3055;DHT22;1537;52.018;8.542;2023-02-20T14:50:16;8.00;99.90
3055;DHT22;1537;52.018;8.542;2023-02-20T14:53:43;8.00;99.90
3055;DHT22;1537;52.018;8.542;2023-02-20T14:57:11;8.00;99.90
3055;DHT22;1537;52.018;8.542;2023-02-20T15:00:37;8.00;99.90
3055;DHT22;1537;52.018;8.542;2023-02-20T15:04:04;8.00;99.90
3055;DHT22;1537;52.018;8.542;2023-02-20T15:07:31;8.00;99.90
3055;DHT22;1537;52.018;8.542;2023-02-20T15:10:56;8.00;99.90
3055;DHT22;1537;52.018;8.542;2023-02-20T15:14:30;8.00;99.90
3055;DHT22;1537;52.018;8.542;2023-02-20T15:18:05;8.00;99.90
3055;DHT22;1537;52.018;8.542;2023-02-20T15:21:31;7.90;99.90
3055;DHT22;1537;52.018;8.542;2023-02-20T15:25:12;7.90;99.90
3055;DHT22;1537;52.018;8.542;2023-02-20T15:28:36;7.90;99.90
3055;DHT22;1537;52.018;8.542;2023-02-20T15:32:02;7.90;99.90
3055;DHT22;1537;52.018;8.542;2023-02-20T15:35:28;7.80;99.90
3055;DHT22;1537;52.018;8.542;2023-02-20T15:38:54;7.80;99.90
3055;DHT22;1537;52.018;8.542;2023-02-20T15:42:20;7.80;99.90
3055;DHT22;1537;52.018;8.542;2023-02-20T15:45:45;7.70;99.90
3055;DHT22;1537;52.018;8.542;2023-02-20T15:49:09;7.80;99.90
3055;DHT22;1537;52.018;8.542;2023-02-20T15:52:42;7.80;99.90
3055;DHT22;1537;52.018;8.542;2023-02-20T15:56:09;7.70;99.90
3055;DHT22;1537;52.018;8.542;2023-02-20T15:59:35;7.70;99.90
3055;DHT22;1537;52.018;8.542;2023-02-20T16:03:00;7.70;99.90
3055;DHT22;1537;52.018;8.542;2023-02-20T16:06:24;7.70;99.90
3055;DHT22;1537;52.018;8.542;2023-02-20T16:09:47;7.70;99.90
3055;DHT22;1537;52.018;8.542;2023-02-20T16:13:24;7.70;99.90
3055;DHT22;1537;52.018;8.542;2023-02-20T16:16:52;7.70;99.90
3055;DHT22;1537;52.018;8.542;2023-02-20T16:20:17;7.70;99.90
3055;DHT22;1537;52.018;8.542;2023-02-20T16:23:41;7.70;99.90
3055;DHT22;1537;52.018;8.542;2023-02-20T16:27:13;7.70;99.90
3055;DHT22;1537;52.018;8.542;2023-02-20T16:30:45;7.60;99.90
3055;DHT22;1537;52.018;8.542;2023-02-20T16:34:10;7.70;99.90
3055;DHT22;1537;52.018;8.542;2023-02-20T16:37:43;7.70;99.90
3055;DHT22;1537;52.018;8.542;2023-02-20T16:41:07;7.60;99.90
3055;DHT22;1537;52.018;8.542;2023-02-20T16:44:35;7.70;99.90
3055;DHT22;1537;52.018;8.542;2023-02-20T16:48:00;7.70;99.90
3055;DHT22;1537;52.018;8.542;2023-02-20T16:51:25;7.70;99.90
3055;DHT22;1537;52.018;8.542;2023-02-20T16:54:51;7.70;99.90
3055;DHT22;1537;52.018;8.542;2023-02-20T16:58:18;7.70;99.90
3055;DHT22;1537;52.018;8.542;2023-02-20T17:01:42;7.70;99.90
3055;DHT22;1537;52.018;8.542;2023-02-20T17:05:05;7.70;99.90
3055;DHT22;1537;52.018;8.542;2023-02-20T17:08:33;7.70;99.90
3055;DHT22;1537;52.018;8.542;2023-02-20T17:11:56;7.70;99.90
3055;DHT22;1537;52.018;8.542;2023-02-20T17:15:27;7.70;99.90
3055;DHT22;1537;52.018;8.542;2023-02-20T17:18:51;7.70;99.90
3055;DHT22;1537;52.018;8.542;2023-02-20T17:22:14;7.60;99.90
3055;DHT22;1537;52.018;8.542;2023-02-20T17:25:40;7.70;99.90
3055;DHT22;1537;52.018;8.542;2023-02-20T17:29:05;7.70;99.90
3055;DHT22;1537;52.018;8.542;2023-02-20T17:32:28;7.70;99.90
3055;DHT22;1537;52.018;8.542;2023-02-20T17:35:54;7.70;99.90
3055;DHT22;1537;52.018;8.542;2023-02-20T17:39:20;7.60;99.90
3055;DHT22;1537;52.018;8.542;2023-02-20T17:42:45;7.60;99.90
3055;DHT22;1537;52.018;8.542;2023-02-20T17:46:09;7.70;99.90
3055;DHT22;1537;52.018;8.542;2023-02-20T17:49:33;7.70;99.90
3055;DHT22;1537;52.018;8.542;2023-02-20T17:52:56;7.70;99.90
3055;DHT22;1537;52.018;8.542;2023-02-20T17:56:20;7.70;99.90
3055;DHT22;1537;52.018;8.542;2023-02-20T17:59:47;7.70;99.90
3055;DHT22;1537;52.018;8.542;2023-02-20T18:03:11;7.70;99.90
3055;DHT22;1537;52.018;8.542;2023-02-20T18:06:36;7.80;99.90
3055;DHT22;1537;52.018;8.542;2023-02-20T18:10:00;7.70;99.90
3055;DHT22;1537;52.018;8.542;2023-02-20T18:13:25;7.70;99.90
3055;DHT22;1537;52.018;8.542;2023-02-20T18:16:50;7.70;99.90
3055;DHT22;1537;52.018;8.542;2023-02-20T18:20:13;7.70;99.90
3055;DHT22;1537;52.018;8.542;2023-02-20T18:23:37;7.80;99.90
3055;DHT22;1537;52.018;8.542;2023-02-20T18:27:01;7.70;99.90
3055;DHT22;1537;52.018;8.542;2023-02-20T18:30:24;7.80;99.90
3055;DHT22;1537;52.018;8.542;2023-02-20T18:33:50;7.70;99.90
3055;DHT22;1537;52.018;8.542;2023-02-20T18:37:13;7.80;99.90
3055;DHT22;1537;52.018;8.542;2023-02-20T18:40:37;7.80;99.90
3055;DHT22;1537;52.018;8.542;2023-02-20T18:44:01;7.80;99.90
3055;DHT22;1537;52.018;8.542;2023-02-20T18:47:24;7.80;99.90
3055;DHT22;1537;52.018;8.542;2023-02-20T18:50:49;7.80;99.90
3055;DHT22;1537;52.018;8.542;2023-02-20T18:54:16;7.80;99.90
3055;DHT22;1537;52.018;8.542;2023-02-20T18:57:40;7.80;99.90
3055;DHT22;1537;52.018;8.542;2023-02-20T19:01:03;7.80;99.90
3055;DHT22;1537;52.018;8.542;2023-02-20T19:04:28;7.80;99.90
3055;DHT22;1537;52.018;8.542;2023-02-20T19:07:56;7.80;99.90
3055;DHT22;1537;52.018;8.542;2023-02-20T19:11:20;7.80;99.90
3055;DHT22;1537;52.018;8.542;2023-02-20T19:14:44;7.80;99.90
3055;DHT22;1537;52.018;8.542;2023-02-20T19:18:07;7.80;99.90
3055;DHT22;1537;52.018;8.542;2023-02-20T19:21:31;7.80;99.90
3055;DHT22;1537;52.018;8.542;2023-02-20T19:24:56;7.80;99.90
3055;DHT22;1537;52.018;8.542;2023-02-20T19:28:22;7.80;99.90
3055;DHT22;1537;52.018;8.542;2023-02-20T19:31:46;7.80;99.90
3055;DHT22;1537;52.018;8.542;2023-02-20T19:35:10;7.80;99.90
3055;DHT22;1537;52.018;8.542;2023-02-20T19:38:33;7.80;99.90
3055;DHT22;1537;52.018;8.542;2023-02-20T19:41:58;7.90;99.90
3055;DHT22;1537;52.018;8.542;2023-02-20T19:45:22;7.80;99.90
3055;DHT22;1537;52.018;8.542;2023-02-20T19:48:45;7.80;99.90
3055;DHT22;1537;52.018;8.542;2023-02-20T19:52:09;7.80;99.90
3055;DHT22;1537;52.018;8.542;2023-02-20T19:55:33;7.80;99.90
3055;DHT22;1537;52.018;8.542;2023-02-20T19:58:58;7.80;99.90
3055;DHT22;1537;52.018;8.542;2023-02-20T20:02:21;7.90;99.90
3055;DHT22;1537;52.018;8.542;2023-02-20T20:05:47;7.90;99.90
3055;DHT22;1537;52.018;8.542;2023-02-20T20:09:11;7.80;99.90
3055;DHT22;1537;52.018;8.542;2023-02-20T20:12:44;7.80;99.90
3055;DHT22;1537;52.018;8.542;2023-02-20T20:16:13;7.90;99.90
3055;DHT22;1537;52.018;8.542;2023-02-20T20:19:36;7.90;99.90
3055;DHT22;1537;52.018;8.542;2023-02-20T20:23:08;7.90;99.90
3055;DHT22;1537;52.018;8.542;2023-02-20T20:26:33;7.90;99.90
3055;DHT22;1537;52.018;8.542;2023-02-20T20:29:57;7.90;99.90
3055;DHT22;1537;52.018;8.542;2023-02-20T20:33:21;7.90;99.90
3055;DHT22;1537;52.018;8.542;2023-02-20T20:36:46;7.90;99.90
3055;DHT22;1537;52.018;8.542;2023-02-20T20:40:10;7.90;99.90
3055;DHT22;1537;52.018;8.542;2023-02-20T20:43:35;8.00;99.90
3055;DHT22;1537;52.018;8.542;2023-02-20T20:47:02;7.90;99.90
3055;DHT22;1537;52.018;8.542;2023-02-20T20:50:29;7.90;99.90
3055;DHT22;1537;52.018;8.542;2023-02-20T20:53:53;7.90;99.90
3055;DHT22;1537;52.018;8.542;2023-02-20T20:57:16;7.90;99.90
3055;DHT22;1537;52.018;8.542;2023-02-20T21:00:40;8.00;99.90
3055;DHT22;1537;52.018;8.542;2023-02-20T21:04:04;8.00;99.90
3055;DHT22;1537;52.018;8.542;2023-02-20T21:07:29;8.00;99.90
3055;DHT22;1537;52.018;8.542;2023-02-20T21:10:53;8.00;99.90
3055;DHT22;1537;52.018;8.542;2023-02-20T21:14:17;8.00;99.90
3055;DHT22;1537;52.018;8.542;2023-02-20T21:17:42;8.00;99.90
3055;DHT22;1537;52.018;8.542;2023-02-20T21:21:06;8.00;99.90
3055;DHT22;1537;52.018;8.542;2023-02-20T21:24:33;8.00;99.90
3055;DHT22;1537;52.018;8.542;2023-02-20T21:27:57;8.00;99.90
3055;DHT22;1537;52.018;8.542;2023-02-20T21:31:21;8.00;99.90
3055;DHT22;1537;52.018;8.542;2023-02-20T21:34:45;8.00;99.90
3055;DHT22;1537;52.018;8.542;2023-02-20T21:38:08;8.00;99.90
3055;DHT22;1537;52.018;8.542;2023-02-20T21:41:33;8.00;99.90
3055;DHT22;1537;52.018;8.542;2023-02-20T21:45:15;8.00;99.90
3055;DHT22;1537;52.018;8.542;2023-02-20T21:48:39;8.00;99.90
3055;DHT22;1537;52.018;8.542;2023-02-20T21:52:03;8.00;99.90
3055;DHT22;1537;52.018;8.542;2023-02-20T21:55:27;8.00;99.90
3055;DHT22;1537;52.018;8.542;2023-02-20T21:58:53;8.00;99.90
3055;DHT22;1537;52.018;8.542;2023-02-20T22:02:27;8.10;99.90
3055;DHT22;1537;52.018;8.542;2023-02-20T22:05:50;8.00;99.90
3055;DHT22;1537;52.018;8.542;2023-02-20T22:09:14;8.00;99.90
3055;DHT22;1537;52.018;8.542;2023-02-20T22:12:55;8.00;99.90
3055;DHT22;1537;52.018;8.542;2023-02-20T22:16:37;8.00;99.90
3055;DHT22;1537;52.018;8.542;2023-02-20T22:20:18;8.00;99.90
3055;DHT22;1537;52.018;8.542;2023-02-20T22:23:59;8.00;99.90
3055;DHT22;1537;52.018;8.542;2023-02-20T22:27:51;8.10;99.90
3055;DHT22;1537;52.018;8.542;2023-02-20T22:31:32;8.00;99.90
3055;DHT22;1537;52.018;8.542;2023-02-20T22:35:15;8.00;99.90
3055;DHT22;1537;52.018;8.542;2023-02-20T22:38:56;8.00;99.90
3055;DHT22;1537;52.018;8.542;2023-02-20T22:42:37;8.10;99.90
3055;DHT22;1537;52.018;8.542;2023-02-20T22:46:19;8.10;99.90
3055;DHT22;1537;52.018;8.542;2023-02-20T22:50:01;8.10;99.90
3055;DHT22;1537;52.018;8.542;2023-02-20T22:53:45;8.10;99.90
3055;DHT22;1537;52.018;8.542;2023-02-20T22:57:26;8.10;99.90
3055;DHT22;1537;52.018;8.542;2023-02-20T23:01:07;8.10;99.90
3055;DHT22;1537;52.018;8.542;2023-02-20T23:04:49;8.10;99.90
3055;DHT22;1537;52.018;8.542;2023-02-20T23:08:30;8.10;99.90